Time;durP1;ratioP1;P1;durP2;ratioP2;P2;SDS_P1;SDS_P2;PMS_P1;PMS_P2;Temp;Humidity;BMP_temperature;BMP_pressure;BME280_temperature;BME280_humidity;BME280_pressure;Samples;Min_cycle;Max_cycle;Signal;HPM_P1;HPM_P2
2021/08/18 00:02:24;;;;;;;1999.90;999.90;;;;;;;14.78;79.09;98149.25;5090286;28;20055;-67
2021/08/18 00:04:52;;;;;;;1999.90;999.90;;;;;;;14.84;79.40;98153.41;5090374;28;20040;-67
2021/08/18 00:07:20;;;;;;;1999.90;999.90;;;;;;;14.59;79.93;98152.72;5091258;28;20105;-67
2021/08/18 00:09:51;;;;;;;1999.90;999.90;;;;;;;14.72;79.50;98145.94;5091631;28;20391;-67
2021/08/18 00:12:17;;;;;;;1999.90;999.90;;;;;;;14.82;79.14;98146.56;5089979;28;20101;-67
2021/08/18 00:14:44;;;;;;;1999.90;999.90;;;;;;;15.08;77.97;98144.03;5090476;28;20105;-67
2021/08/18 00:17:11;;;;;;;1999.90;999.90;;;;;;;14.99;78.49;98137.84;5091233;28;20105;-67
2021/08/18 00:19:37;;;;;;;1999.90;999.90;;;;;;;14.98;78.51;98136.22;5090560;28;20048;-67
2021/08/18 00:22:04;;;;;;;1999.90;999.90;;;;;;;15.07;77.53;98138.84;5090349;28;20060;-67
2021/08/18 00:24:30;;;;;;;1999.90;999.90;;;;;;;15.03;77.80;98135.16;5091121;28;20102;-67
2021/08/18 00:26:57;;;;;;;1999.90;999.90;;;;;;;14.96;77.96;98139.38;5091399;28;20052;-67
2021/08/18 00:29:38;;;;;;;1999.90;999.90;;;;;;;14.91;78.43;98136.84;5090254;28;20117;-67
2021/08/18 00:32:05;;;;;;;1999.90;999.90;;;;;;;15.00;78.31;98139.44;5090675;28;20062;-67
2021/08/18 00:34:32;;;;;;;1999.90;999.90;;;;;;;14.89;78.49;98135.63;5090527;28;20097;-68
2021/08/18 00:36:59;;;;;;;1999.90;999.90;;;;;;;14.91;78.03;98144.41;5089968;28;20330;-67
2021/08/18 00:39:26;;;;;;;1999.90;999.90;;;;;;;15.02;77.75;98136.31;5089985;28;20040;-68
2021/08/18 00:41:54;;;;;;;1999.90;999.90;;;;;;;15.28;77.11;98144.09;5090877;28;20437;-68
2021/08/18 00:44:21;;;;;;;1999.90;999.90;;;;;;;15.02;77.46;98142.69;5090618;28;20131;-68
2021/08/18 00:46:56;;;;;;;1999.90;999.90;;;;;;;14.90;78.19;98151.97;5089994;28;20049;-67
2021/08/18 00:49:23;;;;;;;1999.90;999.90;;;;;;;14.89;78.29;98155.91;5090708;28;20094;-68
2021/08/18 00:51:51;;;;;;;1999.90;999.90;;;;;;;14.90;77.98;98148.34;5091195;28;20449;-68
2021/08/18 00:54:21;;;;;;;1999.90;999.90;;;;;;;14.96;78.02;98146.91;5089316;28;20075;-68
2021/08/18 00:56:49;;;;;;;1999.90;999.90;;;;;;;15.23;76.90;98141.56;5091186;28;20109;-68
2021/08/18 00:59:16;;;;;;;1999.90;999.90;;;;;;;15.27;77.04;98150.84;5092687;28;20493;-68
2021/08/18 01:01:43;;;;;;;1999.90;999.90;;;;;;;15.10;77.04;98144.47;5094126;28;20407;-67
2021/08/18 01:04:12;;;;;;;1999.90;999.90;;;;;;;15.13;77.29;98143.75;5093750;28;20048;-67
2021/08/18 01:06:42;;;;;;;1999.90;999.90;;;;;;;15.17;77.37;98149.44;5094572;28;20062;-68
2021/08/18 01:09:10;;;;;;;1999.90;999.90;;;;;;;14.99;77.96;98149.00;5093450;28;20063;-67
2021/08/18 01:11:40;;;;;;;1999.90;999.90;;;;;;;14.97;78.27;98140.97;5092318;28;20076;-67
2021/08/18 01:14:08;;;;;;;1999.90;999.90;;;;;;;15.17;77.83;98145.81;5093854;28;20052;-67
2021/08/18 01:16:39;;;;;;;1999.90;999.90;;;;;;;15.02;77.84;98147.44;5094792;28;20105;-68
2021/08/18 01:19:07;;;;;;;1999.90;999.90;;;;;;;15.07;77.70;98145.19;5094100;28;20048;-68
2021/08/18 01:21:34;;;;;;;1999.90;999.90;;;;;;;15.15;77.60;98146.19;5093390;28;20056;-68
2021/08/18 01:24:02;;;;;;;1999.90;999.90;;;;;;;15.25;77.18;98145.63;5094322;28;20057;-68
2021/08/18 01:26:30;;;;;;;1999.90;999.90;;;;;;;15.29;77.07;98137.38;5094366;28;20044;-68
2021/08/18 01:28:58;;;;;;;1999.90;999.90;;;;;;;15.27;77.28;98125.75;5093291;28;20105;-68
2021/08/18 01:31:25;;;;;;;1999.90;999.90;;;;;;;15.40;76.74;98127.25;5093866;28;20052;-67
2021/08/18 01:33:51;;;;;;;1999.90;999.90;;;;;;;15.49;76.33;98124.28;5094243;28;20052;-68
2021/08/18 01:36:20;;;;;;;1999.90;999.90;;;;;;;15.75;75.09;98117.25;5098636;28;20339;-68
2021/08/18 01:38:46;;;;;;;1999.90;999.90;;;;;;;15.71;75.70;98117.19;5103992;28;20079;-68
2021/08/18 01:41:13;;;;;;;1999.90;999.90;;;;;;;15.72;75.33;98118.00;5094081;28;20055;-68
2021/08/18 01:43:39;;;;;;;1999.90;999.90;;;;;;;15.44;76.51;98108.66;5093367;28;20441;-68
2021/08/18 01:46:06;;;;;;;1999.90;999.90;;;;;;;15.22;77.49;98112.94;5093015;28;20101;-68
2021/08/18 01:48:33;;;;;;;1999.90;999.90;;;;;;;15.02;78.55;98114.88;5093623;28;20052;-68
2021/08/18 01:51:01;;;;;;;1999.90;999.90;;;;;;;14.86;79.50;98111.28;5104602;28;20515;-68
2021/08/18 01:53:33;;;;;;;1999.90;999.90;;;;;;;14.71;80.00;98112.91;5097663;28;20072;-68
2021/08/18 01:56:03;;;;;;;1999.90;999.90;;;;;;;15.00;80.00;98117.19;5092164;28;20040;-68
2021/08/18 01:58:33;;;;;;;1999.90;999.90;;;;;;;15.20;79.25;98117.25;5093923;28;20437;-68
2021/08/18 02:01:02;;;;;;;1999.90;999.90;;;;;;;15.26;78.85;98110.25;5092736;28;20086;-68
2021/08/18 02:03:29;;;;;;;1999.90;999.90;;;;;;;15.18;79.38;98103.69;5092555;28;20044;-68
2021/08/18 02:05:56;;;;;;;1999.90;999.90;;;;;;;15.36;79.02;98103.28;5109553;28;20048;-68
2021/08/18 02:08:22;;;;;;;1999.90;999.90;;;;;;;15.57;78.50;98111.31;5092286;28;20097;-68
2021/08/18 02:10:49;;;;;;;1999.90;999.90;;;;;;;15.44;78.68;98100.28;5094987;28;20052;-68
2021/08/18 02:13:16;;;;;;;1999.90;999.90;;;;;;;15.21;79.59;98099.38;5106317;28;20044;-68
2021/08/18 02:15:43;;;;;;;1999.90;999.90;;;;;;;15.01;80.46;98099.31;5093669;28;20052;-68
2021/08/18 02:18:14;;;;;;;1999.90;999.90;;;;;;;14.94;80.41;98113.06;5092663;28;20048;-68
2021/08/18 02:20:43;;;;;;;1999.90;999.90;;;;;;;14.71;80.98;98104.56;5092527;28;20059;-68
2021/08/18 02:23:10;;;;;;;1999.90;999.90;;;;;;;14.31;83.34;98102.69;5093129;28;20518;-68
2021/08/18 02:25:37;;;;;;;1999.90;999.90;;;;;;;14.37;82.96;98112.41;5092534;28;20482;-68
2021/08/18 02:28:05;;;;;;;1999.90;999.90;;;;;;;14.51;82.29;98104.41;5091027;28;20133;-68
2021/08/18 02:30:33;;;;;;;1999.90;999.90;;;;;;;14.43;83.14;98110.97;5093091;28;20051;-68
2021/08/18 02:33:00;;;;;;;1999.90;999.90;;;;;;;14.47;83.14;98122.16;5093029;28;20125;-68
2021/08/18 02:35:27;;;;;;;1999.90;999.90;;;;;;;14.68;82.34;98111.63;5091398;28;20125;-68
2021/08/18 02:37:56;;;;;;;1999.90;999.90;;;;;;;14.99;81.27;98121.16;5092661;28;20047;-68
2021/08/18 02:40:23;;;;;;;1999.90;999.90;;;;;;;15.02;81.17;98123.22;5092657;28;20101;-68
2021/08/18 02:42:52;;;;;;;1999.90;999.90;;;;;;;15.24;79.99;98115.34;5091498;28;20117;-67
2021/08/18 02:45:21;;;;;;;1999.90;999.90;;;;;;;15.36;79.71;98117.22;5092300;28;20071;-67
2021/08/18 02:47:49;;;;;;;1999.90;999.90;;;;;;;15.34;79.43;98114.78;5091563;28;20210;-67
2021/08/18 02:50:18;;;;;;;1999.90;999.90;;;;;;;14.84;80.91;98114.44;5091437;28;20055;-68
2021/08/18 02:52:45;;;;;;;1999.90;999.90;;;;;;;14.98;80.83;98113.97;5091696;28;20055;-68
2021/08/18 02:55:12;;;;;;;1999.90;999.90;;;;;;;15.04;80.83;98112.50;5090769;28;20116;-68
2021/08/18 02:57:39;;;;;;;1999.90;999.90;;;;;;;15.09;80.52;98114.22;5092573;28;20109;-68
2021/08/18 03:00:07;;;;;;;1999.90;999.90;;;;;;;15.00;81.11;98114.41;5091363;28;20121;-68
2021/08/18 03:02:34;;;;;;;1999.90;999.90;;;;;;;14.84;81.75;98113.59;5092078;28;20605;-69
2021/08/18 03:05:01;;;;;;;1999.90;999.90;;;;;;;14.89;81.69;98118.91;5092146;28;20455;-68
2021/08/18 03:07:28;;;;;;;1999.90;999.90;;;;;;;15.19;81.03;98119.22;5091379;28;20059;-68
2021/08/18 03:09:54;;;;;;;1999.90;999.90;;;;;;;15.34;80.48;98119.56;5091264;28;20444;-68
2021/08/18 03:12:21;;;;;;;1999.90;999.90;;;;;;;15.18;81.22;98114.03;5090734;28;20510;-68
2021/08/18 03:14:47;;;;;;;1999.90;999.90;;;;;;;15.39;80.26;98122.06;5097656;28;20497;-68
2021/08/18 03:17:14;;;;;;;1999.90;999.90;;;;;;;15.27;80.89;98134.94;5098102;28;20501;-68
2021/08/18 03:19:41;;;;;;;1999.90;999.90;;;;;;;15.33;80.38;98132.66;5091762;28;20103;-68
2021/08/18 03:22:07;;;;;;;1999.90;999.90;;;;;;;15.01;81.81;98124.38;5091358;28;20044;-68
2021/08/18 03:24:34;;;;;;;1999.90;999.90;;;;;;;14.86;82.91;98127.97;5090949;28;20445;-68
2021/08/18 03:27:01;;;;;;;1999.90;999.90;;;;;;;14.79;83.26;98143.31;5091661;28;20075;-68
2021/08/18 03:29:27;;;;;;;1999.90;999.90;;;;;;;14.97;82.60;98140.19;5092158;28;20056;-68
2021/08/18 03:31:54;;;;;;;1999.90;999.90;;;;;;;14.72;83.77;98134.81;5089459;28;20446;-68
2021/08/18 03:34:21;;;;;;;1999.90;999.90;;;;;;;15.01;83.10;98124.38;5090572;28;20490;-68
2021/08/18 03:36:47;;;;;;;1999.90;999.90;;;;;;;15.06;82.92;98138.00;5091825;28;20070;-68
2021/08/18 03:39:14;;;;;;;1999.90;999.90;;;;;;;15.44;81.69;98130.94;5090372;28;20113;-68
2021/08/18 03:41:40;;;;;;;1999.90;999.90;;;;;;;15.44;81.34;98132.94;5090581;28;20436;-68
2021/08/18 03:44:07;;;;;;;1999.90;999.90;;;;;;;15.63;80.69;98132.97;5091317;28;20056;-68
2021/08/18 03:46:34;;;;;;;1999.90;999.90;;;;;;;15.77;80.02;98135.25;5089824;28;20040;-68
2021/08/18 03:49:00;;;;;;;1999.90;999.90;;;;;;;15.47;80.78;98135.78;5089808;28;20101;-68
2021/08/18 03:51:27;;;;;;;1999.90;999.90;;;;;;;15.65;80.12;98136.19;5090890;28;20048;-68
2021/08/18 03:53:53;;;;;;;1999.90;999.90;;;;;;;15.94;79.25;98133.22;5091022;28;20048;-68
2021/08/18 03:56:20;;;;;;;1999.90;999.90;;;;;;;16.10;78.57;98142.31;5089463;28;20089;-68
2021/08/18 03:58:46;;;;;;;1999.90;999.90;;;;;;;16.13;78.39;98141.59;5089686;28;20121;-68
2021/08/18 04:01:13;;;;;;;1999.90;999.90;;;;;;;16.10;78.26;98139.53;5090052;28;20081;-68
2021/08/18 04:03:40;;;;;;;1999.90;999.90;;;;;;;16.13;77.92;98149.94;5090222;28;20135;-68
2021/08/18 04:06:07;;;;;;;1999.90;999.90;;;;;;;16.16;78.13;98148.41;5090594;28;20414;-68
2021/08/18 04:08:34;;;;;;;1999.90;999.90;;;;;;;16.01;78.58;98161.25;5091391;28;20478;-68
2021/08/18 04:11:04;;;;;;;1999.90;999.90;;;;;;;16.23;77.89;98159.72;5088103;28;20052;-68
2021/08/18 04:13:32;;;;;;;1999.90;999.90;;;;;;;16.13;78.41;98149.94;5090514;28;20056;-68
2021/08/18 04:15:58;;;;;;;1999.90;999.90;;;;;;;16.20;78.14;98143.72;5089905;28;20044;-68
2021/08/18 04:18:25;;;;;;;1999.90;999.90;;;;;;;15.98;78.64;98148.84;5090820;28;20056;-68
2021/08/18 04:20:51;;;;;;;1999.90;999.90;;;;;;;15.92;78.66;98147.53;5091064;28;20383;-68
2021/08/18 04:23:18;;;;;;;1999.90;999.90;;;;;;;15.84;79.27;98154.94;5098023;28;20079;-68
2021/08/18 04:25:44;;;;;;;1999.90;999.90;;;;;;;15.92;78.99;98153.09;5098142;28;20112;-68
2021/08/18 04:28:11;;;;;;;1999.90;999.90;;;;;;;15.89;78.62;98158.63;5092176;28;20083;-68
2021/08/18 04:30:37;;;;;;;1999.90;999.90;;;;;;;16.01;78.60;98164.06;5097879;28;20052;-68
2021/08/18 04:33:04;;;;;;;1999.90;999.90;;;;;;;15.81;79.35;98166.81;5097653;28;20400;-68
2021/08/18 04:35:31;;;;;;;1999.90;999.90;;;;;;;16.09;78.28;98162.22;5097732;28;20051;-68
2021/08/18 04:37:57;;;;;;;1999.90;999.90;;;;;;;15.79;79.51;98157.22;5102180;28;20085;-68
2021/08/18 04:40:24;;;;;;;1999.90;999.90;;;;;;;15.89;79.09;98161.41;5095331;28;20093;-68
2021/08/18 04:42:51;;;;;;;1999.90;999.90;;;;;;;15.61;80.35;98162.38;5092754;28;20044;-68
2021/08/18 04:45:19;;;;;;;1999.90;999.90;;;;;;;15.52;80.20;98165.34;5092741;28;20451;-68
2021/08/18 04:47:46;;;;;;;1999.90;999.90;;;;;;;15.06;81.94;98162.28;5094767;28;20076;-68
2021/08/18 04:50:14;;;;;;;1999.90;999.90;;;;;;;14.87;82.82;98162.97;5093902;28;20212;-68
2021/08/18 04:52:41;;;;;;;1999.90;999.90;;;;;;;15.19;82.42;98154.63;5094562;28;20044;-68
2021/08/18 04:55:08;;;;;;;1999.90;999.90;;;;;;;15.46;81.11;98170.38;5094467;28;20044;-68
2021/08/18 04:57:35;;;;;;;1999.90;999.90;;;;;;;15.01;82.90;98163.34;5094131;28;20101;-68
2021/08/18 05:00:03;;;;;;;1999.90;999.90;;;;;;;15.16;82.45;98164.50;5093830;28;20098;-68
2021/08/18 05:02:33;;;;;;;1999.90;999.90;;;;;;;15.36;81.79;98165.38;5093681;28;20105;-68
2021/08/18 05:05:01;;;;;;;1999.90;999.90;;;;;;;15.44;81.19;98163.59;5094171;28;20396;-68
2021/08/18 05:07:28;;;;;;;1999.90;999.90;;;;;;;15.31;81.96;98165.66;5093585;28;20430;-68
2021/08/18 05:09:55;;;;;;;1999.90;999.90;;;;;;;15.41;81.58;98170.69;5093904;28;20102;-68
2021/08/18 05:12:23;;;;;;;1999.90;999.90;;;;;;;15.58;81.40;98174.25;5094433;28;20048;-68
2021/08/18 05:14:50;;;;;;;1999.90;999.90;;;;;;;15.39;82.04;98166.63;5092936;28;20415;-68
2021/08/18 05:17:16;;;;;;;1999.90;999.90;;;;;;;15.43;82.29;98165.53;5087552;28;20040;-68
2021/08/18 05:19:43;;;;;;;1999.90;999.90;;;;;;;15.55;82.05;98169.38;5094865;28;20095;-68
2021/08/18 05:22:09;;;;;;;1999.90;999.90;;;;;;;15.80;81.42;98168.00;5094002;28;20094;-68
2021/08/18 05:24:36;;;;;;;1999.90;999.90;;;;;;;15.85;80.70;98172.47;5093550;28;20369;-68
2021/08/18 05:27:03;;;;;;;1999.90;999.90;;;;;;;15.70;81.03;98171.31;5093941;28;20036;-68
2021/08/18 05:29:29;;;;;;;1999.90;999.90;;;;;;;15.73;81.17;98178.16;5095042;28;20097;-67
2021/08/18 05:31:56;;;;;;;1999.90;999.90;;;;;;;15.43;81.89;98182.25;5093181;28;20044;-68
2021/08/18 05:34:22;;;;;;;1999.90;999.90;;;;;;;15.70;81.53;98174.09;5092106;28;20044;-68
2021/08/18 05:36:49;;;;;;;1999.90;999.90;;;;;;;15.69;81.60;98180.88;5094243;28;20079;-68
2021/08/18 05:39:15;;;;;;;1999.90;999.90;;;;;;;15.76;80.90;98175.44;5092877;28;20093;-68
2021/08/18 05:41:42;;;;;;;1999.90;999.90;;;;;;;15.98;80.24;98178.72;5093074;28;20097;-68
2021/08/18 05:44:08;;;;;;;1999.90;999.90;;;;;;;16.07;79.62;98184.09;5074876;28;20044;-68
2021/08/18 05:46:35;;;;;;;1999.90;999.90;;;;;;;16.09;79.61;98181.72;5092636;28;20052;-68
2021/08/18 05:49:02;;;;;;;1999.90;999.90;;;;;;;15.77;80.56;98182.63;5093053;28;20340;-68
2021/08/18 05:51:29;;;;;;;1999.90;999.90;;;;;;;15.82;80.89;98185.19;5093426;28;20097;-67
2021/08/18 05:53:55;;;;;;;1999.90;999.90;;;;;;;16.26;79.47;98174.91;5093055;28;20494;-68
2021/08/18 05:56:22;;;;;;;1999.90;999.90;;;;;;;16.46;77.99;98176.50;5091184;28;20044;-68
2021/08/18 05:58:48;;;;;;;1999.90;999.90;;;;;;;16.58;77.86;98180.31;5093363;28;20049;-69
2021/08/18 06:01:15;;;;;;;1999.90;999.90;;;;;;;16.81;77.08;98181.13;5093435;28;20051;-68
2021/08/18 06:03:44;;;;;;;1999.90;999.90;;;;;;;16.88;76.94;98175.72;5092507;28;20121;-68
2021/08/18 06:06:12;;;;;;;1999.90;999.90;;;;;;;16.42;78.03;98178.44;5092914;28;20043;-68
2021/08/18 06:08:39;;;;;;;1999.90;999.90;;;;;;;16.28;78.56;98184.50;5074757;28;20048;-68
2021/08/18 06:11:05;;;;;;;1999.90;999.90;;;;;;;16.38;78.72;98188.72;5092212;28;20044;-68
2021/08/18 06:13:32;;;;;;;1999.90;999.90;;;;;;;16.17;78.86;98184.31;5092379;28;20083;-68
2021/08/18 06:15:58;;;;;;;1999.90;999.90;;;;;;;16.22;79.39;98191.56;5093139;28;20074;-68
2021/08/18 06:18:25;;;;;;;1999.90;999.90;;;;;;;15.59;80.86;98187.81;5093321;28;20126;-68
2021/08/18 06:20:51;;;;;;;1999.90;999.90;;;;;;;15.55;81.32;98186.09;5092859;28;20376;-68
2021/08/18 06:23:21;;;;;;;1999.90;999.90;;;;;;;15.91;80.64;98193.31;5092812;28;20383;-68
2021/08/18 06:25:48;;;;;;;1999.90;999.90;;;;;;;15.98;79.47;98192.66;5093828;28;20417;-68
2021/08/18 06:28:15;;;;;;;1999.90;999.90;;;;;;;16.22;78.90;98188.78;5091556;28;20105;-69
2021/08/18 06:30:41;;;;;;;1999.90;999.90;;;;;;;15.96;80.16;98195.81;5092564;28;20044;-67
2021/08/18 06:33:08;;;;;;;1999.90;999.90;;;;;;;16.31;79.38;98194.13;5092757;28;20058;-68
2021/08/18 06:35:35;;;;;;;1999.90;999.90;;;;;;;16.28;79.52;98194.88;5091701;28;20055;-67
2021/08/18 06:38:01;;;;;;;1999.90;999.90;;;;;;;16.38;79.42;98194.28;5091565;28;20554;-68
2021/08/18 06:40:28;;;;;;;1999.90;999.90;;;;;;;16.81;76.94;98194.31;5092211;28;20059;-68
2021/08/18 06:42:54;;;;;;;1999.90;999.90;;;;;;;16.63;77.97;98188.38;5092742;28;20109;-68
2021/08/18 06:45:22;;;;;;;1999.90;999.90;;;;;;;16.95;77.53;98199.34;5091669;28;20105;-68
2021/08/18 06:47:48;;;;;;;1999.90;999.90;;;;;;;17.15;76.32;98192.53;5091792;28;20039;-67
2021/08/18 06:50:15;;;;;;;1999.90;999.90;;;;;;;17.23;76.86;98199.84;5092175;28;20052;-68
2021/08/18 06:52:42;;;;;;;1999.90;999.90;;;;;;;16.98;76.65;98193.03;5091782;28;20048;-68
2021/08/18 06:55:10;;;;;;;1999.90;999.90;;;;;;;17.16;76.71;98187.75;5091128;28;20437;-68
2021/08/18 06:57:36;;;;;;;1999.90;999.90;;;;;;;17.39;75.61;98190.53;5091319;28;20044;-68
2021/08/18 07:00:05;;;;;;;1999.90;999.90;;;;;;;17.36;75.55;98196.88;5099947;28;20121;-68
2021/08/18 07:02:31;;;;;;;1999.90;999.90;;;;;;;17.91;74.92;98196.50;5097628;28;20084;-68
2021/08/18 07:05:04;;;;;;;1999.90;999.90;;;;;;;18.36;72.73;98197.47;5092177;28;20068;-68
2021/08/18 07:07:31;;;;;;;1999.90;999.90;;;;;;;18.49;71.92;98189.63;5092569;28;20050;-66
2021/08/18 07:09:57;;;;;;;1999.90;999.90;;;;;;;18.80;69.70;98193.13;5091843;28;20097;-68
2021/08/18 07:12:24;;;;;;;1999.90;999.90;;;;;;;18.81;69.77;98191.97;5092090;28;20059;-67
2021/08/18 07:14:50;;;;;;;1999.90;999.90;;;;;;;18.38;71.36;98194.28;5106632;28;20051;-66
2021/08/18 07:17:17;;;;;;;1999.90;999.90;;;;;;;18.75;70.50;98197.09;5091678;28;20089;-66
2021/08/18 07:19:43;;;;;;;1999.90;999.90;;;;;;;18.56;70.30;98189.69;5091469;28;20044;-68
2021/08/18 07:22:10;;;;;;;1999.90;999.90;;;;;;;18.02;72.55;98186.25;5074333;28;20044;-67
2021/08/18 07:24:37;;;;;;;1999.90;999.90;;;;;;;18.27;70.83;98194.97;5091982;28;20081;-67
2021/08/18 07:27:04;;;;;;;1999.90;999.90;;;;;;;18.44;69.89;98193.59;5090839;28;20036;-67
2021/08/18 07:29:30;;;;;;;1999.90;999.90;;;;;;;18.37;70.66;98198.25;5091613;28;20441;-68
2021/08/18 07:31:57;;;;;;;1999.90;999.90;;;;;;;18.00;70.98;98187.81;5091847;28;20047;-68
2021/08/18 07:34:24;;;;;;;1999.90;999.90;;;;;;;18.17;70.93;98190.03;5090447;28;20496;-67
2021/08/18 07:36:50;;;;;;;1999.90;999.90;;;;;;;18.54;70.54;98197.69;5091396;28;20097;-67
2021/08/18 07:39:17;;;;;;;1999.90;999.90;;;;;;;18.83;68.51;98192.38;5091899;28;20050;-67
2021/08/18 07:41:43;;;;;;;1999.90;999.90;;;;;;;18.54;69.02;98185.69;5090626;28;20066;-67
2021/08/18 07:44:10;;;;;;;1999.90;999.90;;;;;;;18.89;69.36;98187.25;5090778;28;20126;-67
2021/08/18 07:46:36;;;;;;;1999.90;999.90;;;;;;;19.74;65.14;98177.09;5092319;28;20048;-67
2021/08/18 07:49:03;;;;;;;1999.90;999.90;;;;;;;18.92;67.33;98184.50;5092917;28;20052;-67
2021/08/18 07:51:29;;;;;;;1999.90;999.90;;;;;;;19.12;67.16;98187.09;5090856;28;20048;-67
2021/08/18 07:53:56;;;;;;;1999.90;999.90;;;;;;;18.91;66.43;98187.69;5090481;28;20088;-67
2021/08/18 07:56:22;;;;;;;1999.90;999.90;;;;;;;18.82;65.63;98185.19;5091705;28;20048;-67
2021/08/18 07:58:49;;;;;;;1999.90;999.90;;;;;;;19.20;66.88;98188.75;5090640;28;20044;-67
2021/08/18 08:01:33;;;;;;;1999.90;999.90;;;;;;;19.62;63.88;98192.25;5091097;28;20067;-67
2021/08/18 08:04:00;;;;;;;1999.90;999.90;;;;;;;19.34;63.00;98193.69;5091680;28;20048;-67
2021/08/18 08:06:26;;;;;;;1999.90;999.90;;;;;;;19.74;62.45;98188.31;5091040;28;20108;-69
2021/08/18 08:08:53;;;;;;;1999.90;999.90;;;;;;;19.66;61.61;98187.47;5090560;28;20040;-66
2021/08/18 08:11:19;;;;;;;1999.90;999.90;;;;;;;19.62;61.50;98187.47;5091740;28;20048;-68
2021/08/18 08:13:46;;;;;;;1999.90;999.90;;;;;;;19.43;62.71;98194.13;5092521;28;20048;-68
2021/08/18 08:16:13;;;;;;;1999.90;999.90;;;;;;;19.18;62.67;98179.91;5090934;28;20123;-66
2021/08/18 08:18:39;;;;;;;1999.90;999.90;;;;;;;20.11;61.38;98173.34;5090999;28;20036;-67
2021/08/18 08:21:06;;;;;;;1999.90;999.90;;;;;;;19.20;61.50;98174.72;5092027;28;20094;-67
2021/08/18 08:23:33;;;;;;;1999.90;999.90;;;;;;;19.67;61.72;98178.69;5089959;28;20502;-68
2021/08/18 08:25:59;;;;;;;1999.90;999.90;;;;;;;19.52;61.44;98171.38;5102480;28;20050;-67
2021/08/18 08:28:26;;;;;;;1999.90;999.90;;;;;;;19.87;61.70;98172.81;5092133;28;20040;-67
2021/08/18 08:30:53;;;;;;;1999.90;999.90;;;;;;;20.64;57.37;98166.31;5091884;28;20048;-67
2021/08/18 08:33:19;;;;;;;1999.90;999.90;;;;;;;20.55;57.03;98169.47;5091283;28;20054;-68
2021/08/18 08:35:46;;;;;;;1999.90;999.90;;;;;;;20.57;58.04;98161.44;5091609;28;20048;-68
2021/08/18 08:38:15;;;;;;;1999.90;999.90;;;;;;;21.19;54.39;98160.38;5096829;28;20093;-66
2021/08/18 08:40:43;;;;;;;1999.90;999.90;;;;;;;20.58;55.52;98163.06;5096529;28;20353;-67
2021/08/18 08:43:12;;;;;;;1999.90;999.90;;;;;;;19.66;57.10;98176.25;5091220;28;20070;-67
2021/08/18 08:45:42;;;;;;;1999.90;999.90;;;;;;;20.54;54.95;98162.25;5091986;28;20052;-66
2021/08/18 08:48:08;;;;;;;1999.90;999.90;;;;;;;20.62;56.17;98158.28;5090696;28;20101;-67
2021/08/18 08:50:35;;;;;;;1999.90;999.90;;;;;;;20.70;54.41;98159.91;5091668;28;20044;-68
2021/08/18 08:53:02;;;;;;;1999.90;999.90;;;;;;;20.94;54.51;98168.78;5090544;28;20085;-67
2021/08/18 08:55:28;;;;;;;1999.90;999.90;;;;;;;20.55;55.86;98167.47;5090636;28;20047;-67
2021/08/18 08:57:56;;;;;;;1999.90;999.90;;;;;;;20.76;55.27;98168.75;5090823;28;20071;-67
2021/08/18 09:00:25;;;;;;;1999.90;999.90;;;;;;;21.08;54.71;98174.41;5091476;28;20052;-66
2021/08/18 09:03:12;;;;;;;1999.90;999.90;;;;;;;21.30;55.26;98171.59;5092352;28;20380;-67
2021/08/18 09:05:39;;;;;;;1999.90;999.90;;;;;;;20.41;56.05;98170.25;5090438;28;20359;-67
2021/08/18 09:08:24;;;;;;;1999.90;999.90;;;;;;;19.94;55.67;98161.63;5089857;28;20044;-67
2021/08/18 09:11:03;;;;;;;1999.90;999.90;;;;;;;20.01;55.78;98160.88;5074417;28;20428;-67
2021/08/18 09:13:38;;;;;;;1999.90;999.90;;;;;;;20.40;55.47;98160.22;5089739;28;20052;-67
2021/08/18 09:16:05;;;;;;;1999.90;999.90;;;;;;;19.96;54.05;98158.44;5091131;28;20044;-69
2021/08/18 09:19:04;;;;;;;1999.90;999.90;;;;;;;21.06;54.20;98159.16;5090673;28;20067;-68
2021/08/18 09:21:36;;;;;;;1999.90;999.90;;;;;;;21.82;52.04;98159.91;5040719;28;20125;-68
2021/08/18 09:24:11;;;;;;;1999.90;999.90;;;;;;;21.29;51.09;98155.97;5095631;28;20105;-67
2021/08/18 09:26:39;;;;;;;1999.90;999.90;;;;;;;21.53;50.39;98165.59;5094765;28;20105;-68
2021/08/18 09:29:05;;;;;;;1999.90;999.90;;;;;;;20.47;50.88;98159.41;5094485;28;20308;-68
2021/08/18 09:31:32;;;;;;;1999.90;999.90;;;;;;;20.47;52.12;98160.25;5093741;28;20323;-67
2021/08/18 09:33:59;;;;;;;1999.90;999.90;;;;;;;21.38;50.51;98159.16;5092473;28;20060;-67
2021/08/18 09:36:29;;;;;;;1999.90;999.90;;;;;;;21.49;48.84;98141.47;5094176;28;20048;-68
2021/08/18 09:39:21;;;;;;;1999.90;999.90;;;;;;;21.43;51.05;98149.50;5095046;28;20044;-66
2021/08/18 09:41:49;;;;;;;1999.90;999.90;;;;;;;21.23;50.44;98149.13;5094520;28;20403;-67
2021/08/18 09:44:16;;;;;;;1999.90;999.90;;;;;;;21.91;49.26;98146.22;5101293;28;20394;-67
2021/08/18 09:46:43;;;;;;;1999.90;999.90;;;;;;;21.92;49.60;98144.22;5094306;28;20044;-67
2021/08/18 09:49:12;;;;;;;1999.90;999.90;;;;;;;21.81;46.92;98147.84;5102016;28;20431;-68
2021/08/18 09:51:43;;;;;;;1999.90;999.90;;;;;;;22.44;47.26;98144.41;5094851;28;20052;-67
2021/08/18 09:54:17;;;;;;;1999.90;999.90;;;;;;;21.92;46.99;98144.22;5093950;28;20059;-67
2021/08/18 09:56:48;;;;;;;1999.90;999.90;;;;;;;22.22;48.01;98145.69;5094714;28;20498;-67
2021/08/18 09:59:16;;;;;;;1999.90;999.90;;;;;;;22.31;47.22;98138.44;5094915;28;20101;-67
2021/08/18 10:01:43;;;;;;;1999.90;999.90;;;;;;;22.59;48.00;98152.78;5094053;28;20044;-67
2021/08/18 10:04:10;;;;;;;1999.90;999.90;;;;;;;23.58;46.90;98151.63;5093839;28;20411;-67
2021/08/18 10:06:37;;;;;;;1999.90;999.90;;;;;;;24.26;46.25;98146.03;5094572;28;20044;-67
2021/08/18 10:09:04;;;;;;;1999.90;999.90;;;;;;;23.81;43.09;98154.63;5094564;28;20048;-66
2021/08/18 10:11:30;;;;;;;1999.90;999.90;;;;;;;23.49;45.28;98150.13;5093922;28;20056;-67
2021/08/18 10:13:57;;;;;;;1999.90;999.90;;;;;;;23.41;44.77;98153.41;5094272;28;20417;-66
2021/08/18 10:16:24;;;;;;;1999.90;999.90;;;;;;;23.23;45.20;98154.38;5094571;28;20052;-67
2021/08/18 10:18:55;;;;;;;1999.90;999.90;;;;;;;22.61;46.06;98148.34;5092247;28;20545;-66
2021/08/18 10:21:26;;;;;;;1999.90;999.90;;;;;;;22.41;47.55;98150.88;5093896;28;20052;-67
2021/08/18 10:23:57;;;;;;;1999.90;999.90;;;;;;;21.17;49.75;98154.34;5094032;28;20104;-67
2021/08/18 10:26:33;;;;;;;1999.90;999.90;;;;;;;20.71;51.20;98139.06;5092530;28;20105;-69
2021/08/18 10:29:26;;;;;;;1999.90;999.90;;;;;;;20.82;51.02;98146.69;5092957;28;20226;-68
2021/08/18 10:31:53;;;;;;;1999.90;999.90;;;;;;;21.72;50.45;98144.66;5090378;28;20055;-68
2021/08/18 10:34:22;;;;;;;1999.90;999.90;;;;;;;21.96;48.49;98137.34;5094210;28;20051;-67
2021/08/18 10:36:53;;;;;;;1999.90;999.90;;;;;;;22.34;49.60;98131.19;5092285;28;20055;-67
2021/08/18 10:39:22;;;;;;;1999.90;999.90;;;;;;;22.04;48.78;98132.50;5092407;28;20423;-67
2021/08/18 10:42:10;;;;;;;1999.90;999.90;;;;;;;21.86;48.83;98143.81;5093768;28;20047;-66
2021/08/18 10:44:49;;;;;;;1999.90;999.90;;;;;;;22.08;47.34;98133.28;5097378;28;20043;-67
2021/08/18 10:47:18;;;;;;;1999.90;999.90;;;;;;;21.45;49.69;98136.66;5092033;28;20044;-67
2021/08/18 10:49:53;;;;;;;1999.90;999.90;;;;;;;21.67;49.75;98133.81;5092377;28;20105;-67
2021/08/18 10:52:28;;;;;;;1999.90;999.90;;;;;;;22.23;48.65;98133.22;5093866;28;20044;-67
2021/08/18 10:55:01;;;;;;;1999.90;999.90;;;;;;;22.45;48.96;98133.94;5092015;28;20055;-67
2021/08/18 10:57:33;;;;;;;1999.90;999.90;;;;;;;23.19;47.78;98133.84;5089723;28;20052;-67
2021/08/18 11:00:09;;;;;;;1999.90;999.90;;;;;;;22.99;47.23;98133.59;5092361;28;20553;-67